createdAt,value
2019-02-11T00:00:02.050Z,6.93
2019-02-11T00:02:34.216Z,6.95
2019-02-11T00:05:05.418Z,6.83
2019-02-11T00:07:36.349Z,6.79
2019-02-11T00:10:06.864Z,6.80
2019-02-11T00:12:37.354Z,6.77
2019-02-11T00:15:08.016Z,6.75
2019-02-11T00:17:38.563Z,6.71
2019-02-11T00:20:09.565Z,6.69
2019-02-11T00:22:39.881Z,6.66
2019-02-11T00:25:11.535Z,6.64
2019-02-11T00:27:42.302Z,6.59
2019-02-11T00:30:12.765Z,6.58
2019-02-11T00:32:43.410Z,6.59
2019-02-11T00:35:13.762Z,6.55
2019-02-11T00:37:44.298Z,6.59
2019-02-11T00:40:14.790Z,6.59
2019-02-11T00:42:45.377Z,6.64
2019-02-11T00:45:15.931Z,6.64
2019-02-11T00:47:46.901Z,6.65
2019-02-11T00:50:17.669Z,6.65
2019-02-11T00:52:48.363Z,6.68
2019-02-11T00:55:18.910Z,6.68
2019-02-11T00:57:49.363Z,6.68
2019-02-11T01:00:19.894Z,6.70
2019-02-11T01:02:50.764Z,6.70
2019-02-11T01:05:21.399Z,6.66
2019-02-11T01:07:51.817Z,6.50
2019-02-11T01:10:22.839Z,6.48
2019-02-11T01:12:57.360Z,6.38
2019-02-11T01:15:27.979Z,6.23
2019-02-11T01:17:59.958Z,6.13
2019-02-11T01:20:31.831Z,6.04
2019-02-11T01:23:02.748Z,6.05
2019-02-11T01:25:33.995Z,5.92
2019-02-11T01:28:04.984Z,5.78
2019-02-11T01:30:35.513Z,5.75
2019-02-11T01:33:06.092Z,5.78
2019-02-11T01:35:36.750Z,5.78
2019-02-11T01:38:08.158Z,5.72
2019-02-11T01:40:38.805Z,5.67
2019-02-11T01:43:09.395Z,5.68
2019-02-11T01:45:41.093Z,5.70
2019-02-11T01:48:11.739Z,5.74
2019-02-11T01:50:42.080Z,5.71
2019-02-11T01:53:12.692Z,5.74
2019-02-11T01:55:43.388Z,5.73
2019-02-11T01:58:14.230Z,5.75
2019-02-11T02:00:44.771Z,5.70
2019-02-11T02:03:15.438Z,5.71
2019-02-11T02:05:46.524Z,5.67
2019-02-11T02:08:18.748Z,5.66
2019-02-11T02:10:50.128Z,5.62
2019-02-11T02:13:20.752Z,5.58
2019-02-11T02:15:51.648Z,5.54
2019-02-11T02:18:23.184Z,5.54
2019-02-11T02:20:53.526Z,5.47
2019-02-11T02:23:24.013Z,5.42
2019-02-11T02:25:54.663Z,5.45
2019-02-11T02:28:25.180Z,5.40
2019-02-11T02:30:56.216Z,5.36
2019-02-11T02:33:26.946Z,5.33
2019-02-11T02:35:57.744Z,5.32
2019-02-11T02:38:28.371Z,5.28
2019-02-11T02:40:59.085Z,5.28
2019-02-11T02:43:29.548Z,5.30
2019-02-11T02:46:02.586Z,5.27
2019-02-11T02:48:33.021Z,5.23
2019-02-11T02:51:05.223Z,5.18
2019-02-11T02:53:35.666Z,5.21
2019-02-11T02:56:06.182Z,5.16
2019-02-11T02:58:36.891Z,5.12
2019-02-11T03:01:08.363Z,5.07
2019-02-11T03:03:38.835Z,5.06
2019-02-11T03:06:09.667Z,5.07
2019-02-11T03:08:40.294Z,5.00
2019-02-11T03:11:10.807Z,5.01
2019-02-11T03:13:41.430Z,4.97
2019-02-11T03:16:11.858Z,4.96
2019-02-11T03:18:44.555Z,4.94
2019-02-11T03:21:15.109Z,4.91
2019-02-11T03:23:45.951Z,4.92
2019-02-11T03:26:16.528Z,4.91
2019-02-11T03:28:47.347Z,4.93
2019-02-11T03:31:19.304Z,4.95
2019-02-11T03:33:49.719Z,4.98
2019-02-11T03:36:20.300Z,4.92
2019-02-11T03:38:52.276Z,4.89
2019-02-11T03:41:22.917Z,4.89
2019-02-11T03:43:53.312Z,4.87
2019-02-11T03:46:23.813Z,4.86
2019-02-11T03:48:54.828Z,4.85
2019-02-11T03:51:25.329Z,4.84
2019-02-11T03:53:56.066Z,4.83
2019-02-11T03:56:26.395Z,4.80
2019-02-11T03:58:57.278Z,4.82
2019-02-11T04:01:28.614Z,4.84
2019-02-11T04:04:00.024Z,4.80
2019-02-11T04:06:30.647Z,4.83
2019-02-11T04:09:01.340Z,4.86
2019-02-11T04:11:32.999Z,4.85
2019-02-11T04:14:04.092Z,4.85
2019-02-11T04:16:34.500Z,4.87
2019-02-11T04:19:04.994Z,4.87
2019-02-11T04:21:35.625Z,4.89
2019-02-11T04:24:06.181Z,4.92
2019-02-11T04:26:36.894Z,4.90
2019-02-11T04:29:07.280Z,4.88
2019-02-11T04:31:37.666Z,4.92
2019-02-11T04:34:10.392Z,4.89
2019-02-11T04:36:41.914Z,4.89
2019-02-11T04:39:13.818Z,4.92
2019-02-11T04:41:44.208Z,4.95
2019-02-11T04:44:14.832Z,5.00
2019-02-11T04:46:46.778Z,4.90
2019-02-11T04:49:17.243Z,4.90
2019-02-11T04:51:47.786Z,4.92
2019-02-11T04:54:18.269Z,4.91
2019-02-11T04:56:48.974Z,4.91
2019-02-11T04:59:19.578Z,4.93
2019-02-11T05:01:50.123Z,4.84
2019-02-11T05:04:20.792Z,4.85
2019-02-11T05:06:51.307Z,4.83
2019-02-11T05:09:21.966Z,4.82
2019-02-11T05:11:52.663Z,4.85
2019-02-11T05:14:23.374Z,4.83
2019-02-11T05:16:54.037Z,4.86
2019-02-11T05:19:25.046Z,4.85
2019-02-11T05:21:56.154Z,4.88
2019-02-11T05:24:26.616Z,4.84
2019-02-11T05:26:57.353Z,4.85
2019-02-11T05:29:30.348Z,4.83
2019-02-11T05:32:01.245Z,4.84
2019-02-11T05:34:31.914Z,4.82
2019-02-11T05:37:02.435Z,4.87
2019-02-11T05:39:33.346Z,4.88
2019-02-11T05:42:03.935Z,5.07
2019-02-11T05:44:34.280Z,4.96
2019-02-11T05:47:04.979Z,4.94
2019-02-11T05:49:35.338Z,4.96
2019-02-11T05:52:06.094Z,4.96
2019-02-11T05:54:36.575Z,4.95
2019-02-11T05:57:07.284Z,4.94
2019-02-11T05:59:37.861Z,5.00
2019-02-11T06:02:08.309Z,4.99
2019-02-11T06:04:38.719Z,4.96
2019-02-11T06:07:09.709Z,5.00
2019-02-11T06:09:40.402Z,5.02
2019-02-11T06:12:10.794Z,5.02
2019-02-11T06:14:41.167Z,5.03
2019-02-11T06:17:11.528Z,5.09
2019-02-11T06:19:43.996Z,5.06
2019-02-11T06:22:15.085Z,5.08
2019-02-11T06:24:48.465Z,5.08
2019-02-11T06:27:20.555Z,5.09
2019-02-11T06:29:50.909Z,5.11
2019-02-11T06:32:23.369Z,5.19
2019-02-11T06:34:55.546Z,5.18
2019-02-11T06:37:26.706Z,5.10
2019-02-11T06:39:59.104Z,5.03
2019-02-11T06:42:29.745Z,5.04
2019-02-11T06:45:00.443Z,5.04
2019-02-11T06:47:30.831Z,4.99
2019-02-11T06:50:01.241Z,5.00
2019-02-11T06:52:31.817Z,4.98
2019-02-11T06:55:02.631Z,4.99
2019-02-11T06:57:33.168Z,4.99
2019-02-11T07:00:03.955Z,5.02
2019-02-11T07:02:34.524Z,4.99
2019-02-11T07:05:06.309Z,5.04
2019-02-11T07:07:37.059Z,5.07
2019-02-11T07:10:08.736Z,5.09
2019-02-11T07:12:39.191Z,5.10
2019-02-11T07:15:11.277Z,5.09
2019-02-11T07:17:42.003Z,5.09
2019-02-11T07:20:13.148Z,5.12
2019-02-11T07:22:44.999Z,5.11
2019-02-11T07:25:16.589Z,5.14
2019-02-11T07:27:47.420Z,5.15
2019-02-11T07:30:17.953Z,5.17
2019-02-11T07:32:48.394Z,5.15
2019-02-11T07:35:18.779Z,5.14
2019-02-11T07:37:49.296Z,5.13
2019-02-11T07:40:20.057Z,5.13
2019-02-11T07:43:02.574Z,5.16
2019-02-11T07:45:41.611Z,5.10
2019-02-11T07:48:12.142Z,5.15
2019-02-11T07:50:42.515Z,5.16
2019-02-11T07:53:12.867Z,5.22
2019-02-11T07:55:43.400Z,5.25
2019-02-11T07:58:13.836Z,5.26
2019-02-11T08:00:44.544Z,5.28
2019-02-11T08:03:15.267Z,5.33
2019-02-11T08:05:48.136Z,5.33
2019-02-11T08:08:18.510Z,5.34
2019-02-11T08:10:49.056Z,5.38
2019-02-11T08:13:19.592Z,5.39
2019-02-11T08:15:49.964Z,5.35
2019-02-11T08:18:20.482Z,5.40
2019-02-11T08:20:50.966Z,5.36
2019-02-11T08:23:21.536Z,5.42
2019-02-11T08:25:52.083Z,5.47
2019-02-11T08:28:22.579Z,5.47
2019-02-11T08:30:54.316Z,5.51
2019-02-11T08:33:28.050Z,5.48
2019-02-11T08:35:58.654Z,5.50
2019-02-11T08:38:29.004Z,5.53
2019-02-11T08:41:00.502Z,5.49
2019-02-11T08:43:31.079Z,5.55
2019-02-11T08:46:01.419Z,5.57
2019-02-11T08:48:31.977Z,5.65
2019-02-11T08:51:02.436Z,5.64
2019-02-11T08:53:34.490Z,5.68
2019-02-11T08:56:05.082Z,5.71
2019-02-11T08:58:37.211Z,5.74
2019-02-11T09:01:07.779Z,5.80
2019-02-11T09:03:38.563Z,5.85
2019-02-11T09:06:09.305Z,5.90
2019-02-11T09:08:39.731Z,5.80
2019-02-11T09:11:10.213Z,5.93
2019-02-11T09:13:41.054Z,5.94
2019-02-11T09:16:12.305Z,5.91
2019-02-11T09:18:42.988Z,6.03
2019-02-11T09:21:13.682Z,6.08
2019-02-11T09:23:45.654Z,6.09
2019-02-11T09:26:17.177Z,5.98
2019-02-11T09:28:47.563Z,5.97
2019-02-11T09:31:18.472Z,6.05
2019-02-11T09:33:51.126Z,6.14
2019-02-11T09:36:21.772Z,6.16
2019-02-11T09:38:52.360Z,6.10
2019-02-11T09:41:23.186Z,6.09
2019-02-11T09:43:53.651Z,6.19
2019-02-11T09:46:24.151Z,6.19
2019-02-11T09:48:54.687Z,6.19
2019-02-11T09:51:27.119Z,6.18
2019-02-11T09:53:57.646Z,6.05
2019-02-11T09:56:28.248Z,6.12
2019-02-11T09:58:58.966Z,6.11
2019-02-11T10:01:29.722Z,6.14
2019-02-11T10:04:02.393Z,6.11
2019-02-11T10:06:32.927Z,5.91
2019-02-11T10:09:04.023Z,5.91
2019-02-11T10:11:35.137Z,6.04
2019-02-11T10:14:05.847Z,6.00
2019-02-11T10:16:37.446Z,6.03
2019-02-11T10:19:08.048Z,5.92
2019-02-11T10:21:39.633Z,5.81
2019-02-11T10:24:10.083Z,5.80
2019-02-11T10:26:40.733Z,5.80
2019-02-11T10:29:11.213Z,5.85
2019-02-11T10:31:41.535Z,5.78
2019-02-11T10:34:12.178Z,5.61
2019-02-11T10:36:42.994Z,5.61
2019-02-11T10:39:14.772Z,5.58
2019-02-11T10:41:45.380Z,5.62
2019-02-11T10:44:16.041Z,5.55
2019-02-11T10:46:47.213Z,5.62
2019-02-11T10:49:18.214Z,5.55
2019-02-11T10:51:48.659Z,5.46
2019-02-11T10:54:19.235Z,5.53
2019-02-11T10:56:49.868Z,5.49
2019-02-11T10:59:21.105Z,5.34
2019-02-11T11:01:53.323Z,5.43
2019-02-11T11:04:25.384Z,5.49
2019-02-11T11:06:58.301Z,5.50
2019-02-11T11:09:29.258Z,5.41
2019-02-11T11:12:00.547Z,5.36
2019-02-11T11:14:31.056Z,5.47
2019-02-11T11:17:01.997Z,5.47
2019-02-11T11:19:32.993Z,5.55
2019-02-11T11:22:03.558Z,5.50
2019-02-11T11:24:34.331Z,5.38
2019-02-11T11:27:04.712Z,5.26
2019-02-11T11:29:35.079Z,5.11
2019-02-11T11:32:06.366Z,4.90
2019-02-11T11:34:36.837Z,4.79
2019-02-11T11:37:07.564Z,4.70
2019-02-11T11:39:37.917Z,4.50
2019-02-11T11:42:08.445Z,4.38
2019-02-11T11:44:39.027Z,4.31
2019-02-11T11:47:09.587Z,4.36
2019-02-11T11:49:40.387Z,4.42
2019-02-11T11:52:11.223Z,4.47
2019-02-11T11:54:41.755Z,4.46
2019-02-11T11:57:12.541Z,4.42
2019-02-11T11:59:43.753Z,4.37
2019-02-11T12:02:16.373Z,4.34
2019-02-11T12:04:49.380Z,4.32
2019-02-11T12:07:20.755Z,4.32
2019-02-11T12:09:51.231Z,4.20
2019-02-11T12:12:24.294Z,4.13
2019-02-11T12:14:54.851Z,4.05
2019-02-11T12:17:27.117Z,3.87
2019-02-11T12:19:58.131Z,3.83
2019-02-11T12:22:28.692Z,3.79
2019-02-11T12:24:59.567Z,3.73
2019-02-11T12:27:30.240Z,3.77
2019-02-11T12:30:02.397Z,3.70
2019-02-11T12:32:32.993Z,3.64
2019-02-11T12:35:03.525Z,3.59
2019-02-11T12:37:34.266Z,3.63
2019-02-11T12:40:06.181Z,3.55
2019-02-11T12:42:36.699Z,3.42
2019-02-11T12:45:09.206Z,3.39
2019-02-11T12:47:41.687Z,3.34
2019-02-11T12:50:13.279Z,3.28
2019-02-11T12:52:43.856Z,3.34
2019-02-11T12:55:15.361Z,3.31
2019-02-11T12:57:46.123Z,3.25
2019-02-11T13:00:18.876Z,3.26
2019-02-11T13:02:49.510Z,3.25
2019-02-11T13:05:23.195Z,3.17
2019-02-11T13:07:52.843Z,3.08
2019-02-11T13:10:23.852Z,2.87
2019-02-11T13:12:54.587Z,2.83
2019-02-11T13:15:56.561Z,2.80
2019-02-11T13:18:00.862Z,2.83
2019-02-11T13:20:31.320Z,2.88
2019-02-11T13:23:03.227Z,2.95
2019-02-11T13:25:34.324Z,2.98
2019-02-11T13:28:05.283Z,3.00
2019-02-11T13:30:37.111Z,3.02
2019-02-11T13:33:08.262Z,3.07
2019-02-11T13:35:38.792Z,3.08
2019-02-11T13:38:09.648Z,3.08
2019-02-11T13:40:41.103Z,3.03
2019-02-11T13:43:11.705Z,2.84
2019-02-11T13:45:42.139Z,2.71
2019-02-11T13:48:12.842Z,2.64
2019-02-11T13:50:43.362Z,2.64
2019-02-11T13:53:13.719Z,2.61
2019-02-11T13:55:44.760Z,2.65
2019-02-11T13:58:15.236Z,2.70
2019-02-11T14:00:49.740Z,2.74
2019-02-11T14:03:20.205Z,2.73
2019-02-11T14:05:51.055Z,2.74
2019-02-11T14:08:22.093Z,2.85
2019-02-11T14:10:52.509Z,2.95
2019-02-11T14:13:24.891Z,2.93
2019-02-11T14:15:55.746Z,2.98
2019-02-11T14:18:27.480Z,3.05
2019-02-11T14:20:58.277Z,3.11
2019-02-11T14:23:28.681Z,3.17
2019-02-11T14:25:59.779Z,3.19
2019-02-11T14:28:30.216Z,3.21
2019-02-11T14:31:00.947Z,3.23
2019-02-11T14:33:31.504Z,3.25
2019-02-11T14:36:05.488Z,3.21
2019-02-11T14:38:35.345Z,3.22
2019-02-11T14:41:06.280Z,3.17
2019-02-11T14:43:37.026Z,3.20
2019-02-11T14:46:07.442Z,3.22
2019-02-11T14:48:38.422Z,3.22
2019-02-11T14:51:09.479Z,3.25
2019-02-11T14:53:40.060Z,3.24
2019-02-11T14:56:11.690Z,3.31
2019-02-11T14:58:42.477Z,3.31
2019-02-11T15:01:13.035Z,3.32
2019-02-11T15:03:43.589Z,3.29
2019-02-11T15:06:15.117Z,3.34
2019-02-11T15:08:47.211Z,3.33
2019-02-11T15:11:18.766Z,3.31
2019-02-11T15:13:49.274Z,3.20
2019-02-11T15:16:19.842Z,3.13
2019-02-11T15:18:52.206Z,3.08
2019-02-11T15:21:22.614Z,2.95
2019-02-11T15:23:53.078Z,2.88
2019-02-11T15:26:23.594Z,2.82
2019-02-11T15:28:54.260Z,2.81
2019-02-11T15:31:24.717Z,2.85
2019-02-11T15:33:55.118Z,2.89
2019-02-11T15:36:25.656Z,2.97
2019-02-11T15:38:56.020Z,3.04
2019-02-11T15:41:26.399Z,3.06
2019-02-11T15:43:56.851Z,3.09
2019-02-11T15:46:27.254Z,3.12
2019-02-11T15:48:57.712Z,3.15
2019-02-11T15:51:28.158Z,3.17
2019-02-11T15:53:58.664Z,3.14
2019-02-11T15:56:29.015Z,3.19
2019-02-11T15:58:59.503Z,3.15
2019-02-11T16:01:30.076Z,3.13
2019-02-11T16:04:00.480Z,3.13
2019-02-11T16:06:38.188Z,3.12
2019-02-11T16:09:06.960Z,3.17
2019-02-11T16:11:37.394Z,3.15
2019-02-11T16:14:08.030Z,3.16
2019-02-11T16:16:39.703Z,3.20
2019-02-11T16:19:10.159Z,3.24
2019-02-11T16:21:42.056Z,3.26
2019-02-11T16:24:12.753Z,3.32
2019-02-11T16:26:43.196Z,3.33
2019-02-11T16:29:14.314Z,3.35
2019-02-11T16:31:45.088Z,3.35
2019-02-11T16:34:16.301Z,3.29
2019-02-11T16:36:47.077Z,3.25
2019-02-11T16:39:18.508Z,3.18
2019-02-11T16:41:49.485Z,3.19
2019-02-11T16:44:21.638Z,3.20
2019-02-11T16:46:52.695Z,3.23
2019-02-11T16:49:23.140Z,3.24
2019-02-11T16:51:53.925Z,3.27
2019-02-11T16:54:24.339Z,3.30
2019-02-11T16:56:56.483Z,3.33
2019-02-11T16:59:26.959Z,3.35
2019-02-11T17:01:57.304Z,3.35
2019-02-11T17:04:27.666Z,3.35
2019-02-11T17:06:58.361Z,3.32
2019-02-11T17:09:29.216Z,3.28
2019-02-11T17:11:59.773Z,3.28
2019-02-11T17:14:30.154Z,3.21
2019-02-11T17:17:00.964Z,3.14
2019-02-11T17:19:31.717Z,3.12
2019-02-11T17:22:03.225Z,3.14
2019-02-11T17:24:33.815Z,3.21
2019-02-11T17:27:04.170Z,3.19
2019-02-11T17:29:34.596Z,3.16
2019-02-11T17:32:06.502Z,3.15
2019-02-11T17:34:38.919Z,3.06
2019-02-11T17:37:09.471Z,3.00
2019-02-11T17:39:40.168Z,3.01
2019-02-11T17:42:12.665Z,2.96
2019-02-11T17:44:43.270Z,2.99
2019-02-11T17:47:13.663Z,2.95
2019-02-11T17:49:45.622Z,2.91
2019-02-11T17:52:16.310Z,2.88
2019-02-11T17:54:46.912Z,2.81
2019-02-11T17:57:17.259Z,2.80
2019-02-11T17:59:48.637Z,2.81
2019-02-11T18:02:19.253Z,2.80
2019-02-11T18:04:49.708Z,2.78
2019-02-11T18:07:20.188Z,2.71
2019-02-11T18:09:50.544Z,2.67
2019-02-11T18:12:21.343Z,2.64
2019-02-11T18:14:51.872Z,2.57
2019-02-11T18:17:22.385Z,2.54
2019-02-11T18:19:52.944Z,2.50
2019-02-11T18:22:23.412Z,2.44
2019-02-11T18:24:53.750Z,2.39
2019-02-11T18:27:25.670Z,2.30
2019-02-11T18:29:56.504Z,2.23
2019-02-11T18:32:28.467Z,2.24
2019-02-11T18:34:59.843Z,2.20
2019-02-11T18:37:30.303Z,2.17
2019-02-11T18:40:01.671Z,2.20
2019-02-11T18:42:32.272Z,2.15
2019-02-11T18:45:02.678Z,2.12
2019-02-11T18:47:34.368Z,2.09
2019-02-11T18:50:06.417Z,2.05
2019-02-11T18:52:36.759Z,2.09
2019-02-11T18:55:09.233Z,2.08
2019-02-11T18:57:39.640Z,2.08
2019-02-11T19:00:12.949Z,2.12
2019-02-11T19:02:43.343Z,2.11
2019-02-11T19:05:13.658Z,2.16
2019-02-11T19:07:44.146Z,2.17
2019-02-11T19:10:15.874Z,2.20
2019-02-11T19:12:46.262Z,2.21
2019-02-11T19:15:16.700Z,2.21
2019-02-11T19:17:47.071Z,2.26
2019-02-11T19:20:17.507Z,2.27
2019-02-11T19:22:47.849Z,2.28
2019-02-11T19:25:18.210Z,2.27
2019-02-11T19:27:48.901Z,2.28
2019-02-11T19:30:21.317Z,2.33
2019-02-11T19:32:51.652Z,2.39
2019-02-11T19:35:22.190Z,2.43
2019-02-11T19:37:52.615Z,2.49
2019-02-11T19:40:23.092Z,2.51
2019-02-11T19:42:53.417Z,2.54
2019-02-11T19:45:23.795Z,2.54
2019-02-11T19:47:54.168Z,2.55
2019-02-11T19:50:24.652Z,2.57
2019-02-11T19:52:56.246Z,2.58
2019-02-11T19:55:26.767Z,2.56
2019-02-11T19:57:57.359Z,2.57
2019-02-11T20:00:28.017Z,2.55
2019-02-11T20:02:58.545Z,2.67
2019-02-11T20:05:29.007Z,2.63
2019-02-11T20:08:00.421Z,2.58
2019-02-11T20:10:31.005Z,2.51
2019-02-11T20:13:01.532Z,2.51
2019-02-11T20:15:32.140Z,2.49
2019-02-11T20:18:02.842Z,2.51
2019-02-11T20:20:33.237Z,2.52
2019-02-11T20:23:03.793Z,2.49
2019-02-11T20:25:34.445Z,2.55
2019-02-11T20:28:04.966Z,2.61
2019-02-11T20:30:35.652Z,2.63
2019-02-11T20:33:05.991Z,2.64
2019-02-11T20:35:36.450Z,2.66
2019-02-11T20:38:06.872Z,2.64
2019-02-11T20:40:37.429Z,2.71
2019-02-11T20:43:08.381Z,2.74
2019-02-11T20:45:40.018Z,2.75
2019-02-11T20:48:10.385Z,2.75
2019-02-11T20:50:40.848Z,2.74
2019-02-11T20:53:11.197Z,2.60
2019-02-11T20:55:42.589Z,2.58
2019-02-11T20:58:13.035Z,2.59
2019-02-11T21:00:43.454Z,2.56
2019-02-11T21:03:13.807Z,2.56
2019-02-11T21:05:44.537Z,2.53
2019-02-11T21:08:15.240Z,2.49
2019-02-11T21:10:45.765Z,2.46
2019-02-11T21:13:16.278Z,2.41
2019-02-11T21:15:47.266Z,2.40
2019-02-11T21:18:17.631Z,2.37
2019-02-11T21:20:48.179Z,2.37
2019-02-11T21:23:18.793Z,2.35
2019-02-11T21:25:49.151Z,2.39
2019-02-11T21:28:19.616Z,2.39
2019-02-11T21:30:49.982Z,2.38
2019-02-11T21:33:20.396Z,2.38
2019-02-11T21:35:51.739Z,2.43
2019-02-11T21:38:22.314Z,2.44
2019-02-11T21:40:52.835Z,2.46
2019-02-11T21:43:23.281Z,2.46
2019-02-11T21:45:53.745Z,2.50
2019-02-11T21:48:24.108Z,2.52
2019-02-11T21:50:54.871Z,2.53
2019-02-11T21:53:25.435Z,2.57
2019-02-11T21:55:56.075Z,2.60
2019-02-11T21:58:26.518Z,2.63
2019-02-11T22:01:02.391Z,2.65
2019-02-11T22:03:30.352Z,2.64
2019-02-11T22:06:00.968Z,2.63
2019-02-11T22:08:31.374Z,2.67
2019-02-11T22:11:01.770Z,2.69
2019-02-11T22:13:32.162Z,2.68
2019-02-11T22:16:02.685Z,2.63
2019-02-11T22:18:33.211Z,2.58
2019-02-11T22:21:04.071Z,2.61
2019-02-11T22:23:34.989Z,2.60
2019-02-11T22:26:06.097Z,2.62
2019-02-11T22:28:36.825Z,2.59
2019-02-11T22:31:07.323Z,2.56
2019-02-11T22:33:37.838Z,2.51
2019-02-11T22:36:09.808Z,2.48
2019-02-11T22:38:42.426Z,2.45
2019-02-11T22:41:15.132Z,2.42
2019-02-11T22:43:47.065Z,2.42
2019-02-11T22:46:17.473Z,2.43
2019-02-11T22:48:49.331Z,2.41
2019-02-11T22:51:20.113Z,2.38
2019-02-11T22:53:50.431Z,2.39
2019-02-11T22:56:21.584Z,2.39
2019-02-11T22:58:52.463Z,2.38
2019-02-11T23:01:23.181Z,2.35
2019-02-11T23:03:53.917Z,2.35
2019-02-11T23:06:24.373Z,2.29
2019-02-11T23:08:54.798Z,2.23
2019-02-11T23:11:25.342Z,2.15
2019-02-11T23:13:55.872Z,2.10
2019-02-11T23:16:26.226Z,2.07
2019-02-11T23:18:56.595Z,2.01
2019-02-11T23:21:28.799Z,2.05
2019-02-11T23:23:59.425Z,1.99
2019-02-11T23:26:30.346Z,2.01
2019-02-11T23:29:01.014Z,2.02
2019-02-11T23:31:31.406Z,2.02
2019-02-11T23:34:02.014Z,1.97
2019-02-11T23:36:32.655Z,1.99
2019-02-11T23:39:04.574Z,1.94
2019-02-11T23:41:35.169Z,1.93
2019-02-11T23:44:06.158Z,1.91
2019-02-11T23:46:36.580Z,1.90
2019-02-11T23:49:07.184Z,1.85
2019-02-11T23:51:41.141Z,1.83
2019-02-11T23:54:12.911Z,1.82
2019-02-11T23:56:43.356Z,1.79
2019-02-11T23:59:14.040Z,1.72
